Terminal Aerodrome Forecast
Issued by NWS Denver/Boulder, CO

Home | Current Version | Previous Version | Text Only | Print | Product List | Glossary On
Versions: 1 2 3 4 5 6 7 8 9 10 11 12 13 14 15 16 17 18 19 20 21 22 23 24 25 26 27 28 29 30 31 32 33 34 35 36 37 38 39
000
FTUS45 KBOU 281133
TAFDEN
TAF
KDEN 281133Z 2812/2918 17007KT P6SM SCT150
     FM281600 13010KT P6SM FEW150
     FM282100 15011KT P6SM VCTS SCT070CB BKN120
      TEMPO 2821/2901 VRB15G30KT
     FM290200 02011KT P6SM SCT100 SCT200
     FM290600 34010KT P6SM SCT200=

USA.gov is the U.S. government's official web portal to all federal, state and local government web resources and services.